createdAt,value
2019-03-17T05:02:14.656Z,86.889648
2019-03-17T05:05:42.508Z,86.993408
2019-03-17T05:09:10.383Z,86.828613
2019-03-17T05:12:46.960Z,86.724854
2019-03-17T05:16:14.801Z,86.828613
2019-03-17T05:19:42.675Z,86.993408
2019-03-17T05:23:10.549Z,86.480713
2019-03-17T05:26:38.434Z,86.480713
2019-03-17T05:30:06.306Z,86.376953
2019-03-17T05:33:34.173Z,86.584473
2019-03-17T05:37:06.360Z,86.584473
2019-03-17T05:40:32.909Z,85.656738
2019-03-17T05:44:00.772Z,85.247803
2019-03-17T05:47:28.643Z,85.412598
2019-03-17T05:50:56.511Z,85.205078
2019-03-17T05:54:24.375Z,84.490967
2019-03-17T05:57:52.280Z,85.205078
2019-03-17T06:01:20.139Z,84.387207
2019-03-17T06:04:48.014Z,84.796143
2019-03-17T06:08:15.895Z,84.490967
2019-03-17T06:11:43.792Z,84.588623
2019-03-17T06:15:11.705Z,84.490967
2019-03-17T06:18:39.633Z,84.283447
2019-03-17T06:22:07.498Z,84.588623
2019-03-17T06:25:36.395Z,84.387207
2019-03-17T06:29:05.250Z,84.075928
2019-03-17T06:32:33.102Z,84.490967
2019-03-17T06:36:00.972Z,84.179688
2019-03-17T06:39:28.850Z,83.978271
2019-03-17T06:42:57.301Z,83.978271
2019-03-17T06:46:25.171Z,83.874512
2019-03-17T06:49:53.227Z,83.422852
2019-03-17T06:53:21.643Z,83.117676
2019-03-17T06:56:49.525Z,82.769775
2019-03-17T07:00:19.260Z,82.049561
2019-03-17T07:03:47.193Z,82.012939
2019-03-17T07:07:15.045Z,81.90918
2019-03-17T07:10:42.926Z,81.500244
2019-03-17T07:14:10.818Z,80.883789
2019-03-17T07:17:38.701Z,80.883789
2019-03-17T07:21:06.563Z,81.091309
2019-03-17T07:24:34.459Z,81.292725
2019-03-17T07:28:02.968Z,81.292725
2019-03-17T07:31:31.974Z,80.541992
2019-03-17T07:35:00.847Z,80.639648
2019-03-17T07:38:28.757Z,80.230713
2019-03-17T07:41:56.610Z,79.718018
2019-03-17T07:45:24.508Z,79.681396
2019-03-17T07:48:52.468Z,79.992676
2019-03-17T07:52:20.605Z,80.401611
2019-03-17T07:55:48.547Z,79.47998
2019-03-17T07:59:16.444Z,79.3396
2019-03-17T08:02:44.313Z,79.47998
2019-03-17T08:06:13.055Z,79.272461
2019-03-17T08:09:40.928Z,80.194092
2019-03-17T08:13:09.778Z,79.888916
2019-03-17T08:16:37.674Z,79.376221
2019-03-17T08:20:06.194Z,78.863525
2019-03-17T08:23:38.329Z,79.644775
2019-03-17T08:27:13.960Z,77.764893
2019-03-17T08:30:53.261Z,76.843262
2019-03-17T08:34:20.646Z,77.11792
2019-03-17T08:37:48.507Z,76.812744
2019-03-17T08:41:16.424Z,77.423096
2019-03-17T08:44:44.307Z,77.11792
2019-03-17T08:48:12.181Z,76.9104
2019-03-17T08:51:40.044Z,76.501465
2019-03-17T08:55:07.910Z,76.025391
2019-03-17T08:58:35.790Z,75.714111
2019-03-17T09:02:03.639Z,74.902344
2019-03-17T09:05:31.507Z,74.902344
2019-03-17T09:08:59.404Z,76.123047
2019-03-17T09:12:27.598Z,76.025391
2019-03-17T09:15:55.543Z,75.714111
2019-03-17T09:19:24.409Z,76.159668
2019-03-17T09:22:52.314Z,75.958252
2019-03-17T09:26:20.259Z,75.958252
2019-03-17T09:29:48.153Z,76.879883
2019-03-17T09:33:16.093Z,76.531982
2019-03-17T09:36:43.967Z,76.123047
2019-03-17T09:40:12.109Z,77.252197
2019-03-17T09:43:41.079Z,77.288818
2019-03-17T09:47:08.952Z,79.980469
2019-03-17T09:50:36.826Z,88.330078
2019-03-17T09:54:04.703Z,92.687988
2019-03-17T09:57:32.566Z,94.622803
2019-03-17T10:01:00.448Z,95.898438
2019-03-17T10:04:28.330Z,95.898438
2019-03-17T10:07:56.221Z,94.506836
2019-03-17T10:11:24.079Z,94.195557
2019-03-17T10:14:51.989Z,93.109131
2019-03-17T10:18:20.856Z,92.797852
2019-03-17T10:21:48.710Z,94.342041
2019-03-17T10:25:16.582Z,93.829346
2019-03-17T10:28:44.455Z,94.854736
2019-03-17T10:32:12.306Z,94.65332
2019-03-17T10:35:40.206Z,95.477295
2019-03-17T10:39:12.544Z,96.356201
2019-03-17T10:42:38.926Z,97.180176
2019-03-17T10:46:06.844Z,97.229004
2019-03-17T10:49:34.704Z,95.782471
2019-03-17T10:53:02.566Z,95.269775
2019-03-17T10:56:30.451Z,94.549561
2019-03-17T10:59:58.327Z,95.373535
2019-03-17T11:03:26.190Z,94.549561
2019-03-17T11:06:54.063Z,92.962646
2019-03-17T11:10:21.927Z,91.931152
2019-03-17T11:13:50.779Z,92.504883
2019-03-17T11:17:18.683Z,92.462158
2019-03-17T11:20:46.563Z,91.638184
2019-03-17T11:24:21.475Z,92.297363
2019-03-17T11:27:49.359Z,92.199707
2019-03-17T11:31:17.255Z,91.845703
2019-03-17T11:34:45.136Z,90.240479
2019-03-17T11:38:13.898Z,91.229248
2019-03-17T11:41:43.417Z,90.362549
2019-03-17T11:45:11.291Z,89.172363
2019-03-17T11:48:39.204Z,89.477539
2019-03-17T11:52:07.089Z,89.379883
2019-03-17T11:55:35.070Z,89.379883
2019-03-17T11:59:02.877Z,88.244629
2019-03-17T12:02:30.734Z,89.233398
2019-03-17T12:05:58.602Z,88.616943
2019-03-17T12:09:29.170Z,88.677979
2019-03-17T12:12:56.337Z,86.560059
2019-03-17T12:16:24.212Z,87.176514
2019-03-17T12:19:52.995Z,86.968994
2019-03-17T12:23:20.864Z,85.015869
2019-03-17T12:26:48.723Z,85.491943
2019-03-17T12:30:16.590Z,85.632324
2019-03-17T12:33:44.476Z,86.187744
2019-03-17T12:37:12.356Z,86.395264
2019-03-17T12:40:40.210Z,86.907959
2019-03-17T12:44:08.084Z,87.219238
2019-03-17T12:47:37.456Z,85.778809
2019-03-17T12:51:04.830Z,83.92334
2019-03-17T12:54:32.794Z,84.747314
2019-03-17T12:58:00.665Z,85.882568
2019-03-17T13:01:28.520Z,86.187744
2019-03-17T13:04:56.387Z,88.140869
2019-03-17T13:08:24.285Z,87.524414
2019-03-17T13:11:52.150Z,88.659668
2019-03-17T13:15:20.018Z,88.616943
2019-03-17T13:18:47.911Z,86.724854
2019-03-17T13:22:15.760Z,85.491943
2019-03-17T13:25:43.625Z,83.642578
2019-03-17T13:29:11.491Z,81.280518
2019-03-17T13:32:39.350Z,81.445312
2019-03-17T13:36:07.237Z,78.430176
2019-03-17T13:39:35.168Z,78.942871
2019-03-17T13:43:03.028Z,76.99585
2019-03-17T13:46:30.883Z,78.02124
2019-03-17T13:49:58.751Z,74.841309
2019-03-17T13:53:26.619Z,73.779297
2019-03-17T13:56:54.462Z,72.20459
2019-03-17T14:00:22.373Z,70.391846
2019-03-17T14:03:50.245Z,70.904541
2019-03-17T14:07:19.093Z,70.666504
2019-03-17T14:10:47.967Z,70.050049
2019-03-17T14:14:15.817Z,69.885254
2019-03-17T14:17:43.669Z,69.506836
2019-03-17T14:21:11.576Z,70.635986
2019-03-17T14:24:39.424Z,69.403076
2019-03-17T14:28:07.277Z,69.573975
2019-03-17T14:31:36.139Z,69.885254
2019-03-17T14:35:04.992Z,68.548584
2019-03-17T14:38:33.904Z,68.829346
2019-03-17T14:42:01.904Z,68.859863
2019-03-17T14:45:29.794Z,69.543457
2019-03-17T14:48:57.656Z,67.730713
2019-03-17T14:52:25.562Z,64.599609
2019-03-17T14:55:53.461Z,65.661621
2019-03-17T14:59:21.342Z,61.05957
2019-03-17T15:02:49.203Z,59.936523
2019-03-17T15:06:17.063Z,60.827637
2019-03-17T15:09:44.919Z,62.62207
2019-03-17T15:13:12.786Z,63.647461
2019-03-17T15:16:40.650Z,62.06665
2019-03-17T15:20:08.539Z,63.061523
2019-03-17T15:23:36.425Z,64.526367
2019-03-17T15:27:04.345Z,62.902832
2019-03-17T15:30:32.197Z,60.931396
2019-03-17T15:34:00.065Z,60.083008
2019-03-17T15:37:27.943Z,60.546875
2019-03-17T15:40:55.802Z,59.234619
2019-03-17T15:44:24.677Z,58.1604
2019-03-17T15:47:52.567Z,58.624268
2019-03-17T15:51:21.414Z,64.086914
2019-03-17T15:54:50.256Z,65.301514
2019-03-17T15:58:18.120Z,66.973877
2019-03-17T16:01:45.986Z,67.51709
2019-03-17T16:05:14.838Z,68.572998
2019-03-17T16:08:42.752Z,69.42749
2019-03-17T16:12:10.629Z,69.53125
2019-03-17T16:15:40.351Z,70.251465
2019-03-17T16:19:08.332Z,70.178223
2019-03-17T16:22:36.193Z,70.385742
2019-03-17T16:26:04.056Z,69.976807
2019-03-17T16:29:31.944Z,70.178223
2019-03-17T16:32:59.810Z,70.178223
2019-03-17T16:36:27.677Z,70.007324
2019-03-17T16:39:56.276Z,70.318604
2019-03-17T16:43:25.132Z,70.623779
2019-03-17T16:46:52.997Z,70.214844
2019-03-17T16:50:20.841Z,70.41626
2019-03-17T16:53:48.729Z,71.478271
2019-03-17T16:57:16.710Z,71.478271
2019-03-17T17:00:45.560Z,71.820068
2019-03-17T17:04:13.939Z,72.442627
2019-03-17T17:07:41.810Z,72.88208
2019-03-17T17:11:09.658Z,74.017334
2019-03-17T17:14:37.541Z,74.841309
2019-03-17T17:18:05.409Z,74.530029
2019-03-17T17:21:33.254Z,75.183105
2019-03-17T17:25:02.068Z,75.390625
2019-03-17T17:28:29.979Z,76.727295
2019-03-17T17:31:58.511Z,76.2146
2019-03-17T17:35:35.660Z,76.11084
2019-03-17T17:39:04.510Z,76.11084
2019-03-17T17:42:32.376Z,76.2146
2019-03-17T17:46:00.260Z,75.323486
2019-03-17T17:49:28.146Z,76.45874
2019-03-17T17:52:56.028Z,76.35498
2019-03-17T17:56:23.925Z,75.836182
2019-03-17T17:59:51.800Z,75.628662
2019-03-17T18:03:20.677Z,75.665283
2019-03-17T18:06:48.528Z,76.287842
2019-03-17T18:10:16.417Z,76.525879
2019-03-17T18:13:44.304Z,76.525879
2019-03-17T18:17:12.153Z,77.044678
2019-03-17T18:20:40.209Z,77.453613
2019-03-17T18:24:08.081Z,77.075195
2019-03-17T18:27:35.971Z,76.5625
2019-03-17T18:31:03.871Z,76.35498
2019-03-17T18:34:31.737Z,76.45874
2019-03-17T18:37:59.624Z,75.567627
2019-03-17T18:41:28.324Z,75.323486
2019-03-17T18:44:57.174Z,75.427246
2019-03-17T18:48:25.046Z,75.769043
2019-03-17T18:51:52.907Z,76.184082
2019-03-17T18:55:20.840Z,76.287842
2019-03-17T18:58:48.730Z,74.841309
2019-03-17T19:02:16.600Z,74.841309
2019-03-17T19:05:44.461Z,74.224854
2019-03-17T19:09:12.333Z,73.950195
2019-03-17T19:12:45.612Z,74.67041
2019-03-17T19:16:12.078Z,73.950195
2019-03-17T19:19:39.950Z,74.151611
2019-03-17T19:23:07.861Z,74.56665
2019-03-17T19:26:35.738Z,75.189209
2019-03-17T19:30:03.650Z,76.049805
2019-03-17T19:33:31.553Z,76.361084
2019-03-17T19:37:00.660Z,77.496338
2019-03-17T19:40:29.545Z,79.046631
2019-03-17T19:43:57.452Z,80.218506
2019-03-17T19:47:25.316Z,81.561279
2019-03-17T19:50:53.214Z,81.976318
2019-03-17T19:54:22.040Z,82.427979
2019-03-17T19:57:49.980Z,83.111572
2019-03-17T20:01:17.836Z,83.251953
2019-03-17T20:04:45.739Z,83.770752
2019-03-17T20:08:13.616Z,84.082031
2019-03-17T20:11:41.475Z,83.459473
2019-03-17T20:15:09.360Z,83.709717
2019-03-17T20:18:37.236Z,83.294678
2019-03-17T20:22:07.094Z,83.398438
2019-03-17T20:25:35.014Z,83.605957
2019-03-17T20:29:02.925Z,84.057617
2019-03-17T20:32:31.466Z,84.680176
2019-03-17T20:36:00.313Z,84.576416
2019-03-17T20:39:28.184Z,84.881592
2019-03-17T20:42:56.065Z,84.881592
2019-03-17T20:46:24.919Z,85.089111
2019-03-17T20:49:52.787Z,85.71167
2019-03-17T20:53:20.661Z,84.680176
2019-03-17T20:56:48.562Z,84.881592
2019-03-17T21:00:16.441Z,84.472656
2019-03-17T21:03:45.341Z,83.746338
2019-03-17T21:07:14.180Z,83.538818
2019-03-17T21:10:42.148Z,83.02002
2019-03-17T21:14:12.183Z,82.501221
2019-03-17T21:17:40.035Z,83.02002
2019-03-17T21:21:07.903Z,83.123779
2019-03-17T21:24:35.766Z,82.70874
2019-03-17T21:28:03.617Z,83.990479
2019-03-17T21:31:31.555Z,84.405518
2019-03-17T21:34:59.425Z,85.650635
2019-03-17T21:38:27.271Z,86.37085
2019-03-17T21:41:55.140Z,86.474609
2019-03-17T21:45:23.013Z,86.578369
2019-03-17T21:48:52.844Z,86.785889
2019-03-17T21:52:20.712Z,86.828613
2019-03-17T21:55:48.591Z,86.828613
2019-03-17T21:59:19.432Z,87.139893
2019-03-17T22:02:47.300Z,87.658691
2019-03-17T22:06:17.142Z,87.762451
2019-03-17T22:09:45.995Z,87.243652
2019-03-17T22:13:13.871Z,86.413574
2019-03-17T22:16:41.750Z,86.517334
2019-03-17T22:20:09.591Z,86.413574
2019-03-17T22:23:38.449Z,86.621094
2019-03-17T22:27:06.317Z,86.621094
2019-03-17T22:30:34.183Z,87.139893
2019-03-17T22:34:02.037Z,87.591553
2019-03-17T22:37:30.886Z,87.695312
2019-03-17T22:40:58.760Z,87.384033
2019-03-17T22:44:28.138Z,87.591553
2019-03-17T22:47:55.478Z,87.695312
2019-03-17T22:51:23.336Z,87.280273
2019-03-17T22:54:51.181Z,86.968994
2019-03-17T22:58:19.043Z,86.968994
